sensor_id;sensor_type;location;lat;lon;timestamp;temperature;humidity
1123;DHT22;548;48.778;9.252;2023-05-01T00:01:23;9.60;99.90
1123;DHT22;548;48.778;9.252;2023-05-01T00:03:49;9.50;99.90
1123;DHT22;548;48.778;9.252;2023-05-01T00:06:16;9.50;99.90
1123;DHT22;548;48.778;9.252;2023-05-01T00:08:43;9.50;99.90
1123;DHT22;548;48.778;9.252;2023-05-01T00:11:10;9.60;99.90
1123;DHT22;548;48.778;9.252;2023-05-01T00:13:37;9.50;99.90
1123;DHT22;548;48.778;9.252;2023-05-01T00:16:08;9.40;99.90
1123;DHT22;548;48.778;9.252;2023-05-01T00:18:35;9.30;99.90
1123;DHT22;548;48.778;9.252;2023-05-01T00:21:02;9.30;99.90
1123;DHT22;548;48.778;9.252;2023-05-01T00:23:28;9.30;99.90
1123;DHT22;548;48.778;9.252;2023-05-01T00:25:55;9.30;99.90
1123;DHT22;548;48.778;9.252;2023-05-01T00:28:22;9.40;99.90
1123;DHT22;548;48.778;9.252;2023-05-01T00:30:49;9.40;99.90
1123;DHT22;548;48.778;9.252;2023-05-01T00:33:17;9.30;99.90
1123;DHT22;548;48.778;9.252;2023-05-01T00:35:44;9.30;99.90
1123;DHT22;548;48.778;9.252;2023-05-01T00:38:11;9.30;99.90
1123;DHT22;548;48.778;9.252;2023-05-01T00:40:41;9.30;99.90
1123;DHT22;548;48.778;9.252;2023-05-01T00:43:08;9.20;99.90
1123;DHT22;548;48.778;9.252;2023-05-01T00:45:35;9.20;99.90
1123;DHT22;548;48.778;9.252;2023-05-01T00:48:02;9.20;99.90
1123;DHT22;548;48.778;9.252;2023-05-01T00:50:31;9.30;99.90
1123;DHT22;548;48.778;9.252;2023-05-01T00:52:58;9.30;99.90
1123;DHT22;548;48.778;9.252;2023-05-01T00:55:25;9.20;99.90
1123;DHT22;548;48.778;9.252;2023-05-01T00:57:52;9.20;99.90
1123;DHT22;548;48.778;9.252;2023-05-01T01:00:20;9.30;99.90
1123;DHT22;548;48.778;9.252;2023-05-01T01:02:49;9.20;99.90
1123;DHT22;548;48.778;9.252;2023-05-01T01:05:16;9.30;99.90
1123;DHT22;548;48.778;9.252;2023-05-01T01:07:50;9.20;99.90
1123;DHT22;548;48.778;9.252;2023-05-01T01:10:26;9.20;99.90
1123;DHT22;548;48.778;9.252;2023-05-01T01:13:01;9.20;99.90
1123;DHT22;548;48.778;9.252;2023-05-01T01:15:34;9.20;99.90
1123;DHT22;548;48.778;9.252;2023-05-01T01:18:08;9.20;99.90
1123;DHT22;548;48.778;9.252;2023-05-01T01:20:37;9.20;99.90
1123;DHT22;548;48.778;9.252;2023-05-01T01:23:29;9.20;99.90
1123;DHT22;548;48.778;9.252;2023-05-01T01:32:10;9.20;99.90
1123;DHT22;548;48.778;9.252;2023-05-01T01:34:48;9.20;99.90
1123;DHT22;548;48.778;9.252;2023-05-01T01:37:19;9.20;99.90
1123;DHT22;548;48.778;9.252;2023-05-01T01:39:51;9.30;99.90
1123;DHT22;548;48.778;9.252;2023-05-01T01:42:23;9.40;99.90
1123;DHT22;548;48.778;9.252;2023-05-01T01:44:53;9.40;99.90
1123;DHT22;548;48.778;9.252;2023-05-01T01:47:24;9.50;99.90
1123;DHT22;548;48.778;9.252;2023-05-01T01:49:54;9.50;99.90
1123;DHT22;548;48.778;9.252;2023-05-01T01:52:22;9.50;99.90
1123;DHT22;548;48.778;9.252;2023-05-01T01:54:53;9.40;99.90
1123;DHT22;548;48.778;9.252;2023-05-01T01:57:21;9.50;99.90
1123;DHT22;548;48.778;9.252;2023-05-01T01:59:50;9.40;99.90
1123;DHT22;548;48.778;9.252;2023-05-01T02:02:19;9.40;99.90
1123;DHT22;548;48.778;9.252;2023-05-01T02:04:47;9.40;99.90
1123;DHT22;548;48.778;9.252;2023-05-01T02:07:16;9.50;99.90
1123;DHT22;548;48.778;9.252;2023-05-01T02:09:44;9.50;99.90
1123;DHT22;548;48.778;9.252;2023-05-01T02:12:12;9.50;99.90
1123;DHT22;548;48.778;9.252;2023-05-01T02:14:40;9.50;99.90
1123;DHT22;548;48.778;9.252;2023-05-01T02:17:08;9.60;99.90
1123;DHT22;548;48.778;9.252;2023-05-01T02:19:37;9.60;99.90
1123;DHT22;548;48.778;9.252;2023-05-01T02:22:05;9.60;99.90
1123;DHT22;548;48.778;9.252;2023-05-01T02:24:34;9.50;99.90
1123;DHT22;548;48.778;9.252;2023-05-01T02:27:07;9.60;99.90
1123;DHT22;548;48.778;9.252;2023-05-01T02:29:36;9.60;99.90
1123;DHT22;548;48.778;9.252;2023-05-01T02:32:03;9.60;99.90
1123;DHT22;548;48.778;9.252;2023-05-01T02:34:33;9.70;99.90
1123;DHT22;548;48.778;9.252;2023-05-01T02:37:00;9.70;99.90
1123;DHT22;548;48.778;9.252;2023-05-01T02:39:27;9.80;99.90
1123;DHT22;548;48.778;9.252;2023-05-01T02:41:57;9.90;99.90
1123;DHT22;548;48.778;9.252;2023-05-01T02:44:28;9.90;99.90
1123;DHT22;548;48.778;9.252;2023-05-01T02:46:57;10.00;99.90
1123;DHT22;548;48.778;9.252;2023-05-01T02:49:26;10.10;99.90
1123;DHT22;548;48.778;9.252;2023-05-01T02:51:53;10.10;99.90
1123;DHT22;548;48.778;9.252;2023-05-01T02:54:20;10.10;99.90
1123;DHT22;548;48.778;9.252;2023-05-01T02:56:46;10.10;99.90
1123;DHT22;548;48.778;9.252;2023-05-01T02:59:14;10.10;99.90
1123;DHT22;548;48.778;9.252;2023-05-01T03:01:41;10.10;99.90
1123;DHT22;548;48.778;9.252;2023-05-01T03:04:08;10.20;99.90
1123;DHT22;548;48.778;9.252;2023-05-01T03:06:35;10.20;99.90
1123;DHT22;548;48.778;9.252;2023-05-01T03:09:02;10.20;99.90
1123;DHT22;548;48.778;9.252;2023-05-01T03:11:28;10.30;99.90
1123;DHT22;548;48.778;9.252;2023-05-01T03:13:55;10.20;99.90
1123;DHT22;548;48.778;9.252;2023-05-01T03:16:23;10.30;99.90
1123;DHT22;548;48.778;9.252;2023-05-01T03:18:50;10.30;99.90
1123;DHT22;548;48.778;9.252;2023-05-01T03:21:16;10.30;99.90
1123;DHT22;548;48.778;9.252;2023-05-01T03:23:43;10.30;99.90
1123;DHT22;548;48.778;9.252;2023-05-01T03:26:10;10.30;99.90
1123;DHT22;548;48.778;9.252;2023-05-01T03:28:36;10.30;99.90
1123;DHT22;548;48.778;9.252;2023-05-01T03:31:03;10.30;99.90
1123;DHT22;548;48.778;9.252;2023-05-01T03:33:31;10.30;99.90
1123;DHT22;548;48.778;9.252;2023-05-01T03:35:59;10.40;99.90
1123;DHT22;548;48.778;9.252;2023-05-01T03:38:26;10.30;99.90
1123;DHT22;548;48.778;9.252;2023-05-01T03:40:53;10.30;99.90
1123;DHT22;548;48.778;9.252;2023-05-01T03:43:19;10.30;99.90
1123;DHT22;548;48.778;9.252;2023-05-01T03:45:46;10.30;99.90
1123;DHT22;548;48.778;9.252;2023-05-01T03:48:13;10.20;99.90
1123;DHT22;548;48.778;9.252;2023-05-01T03:50:41;10.20;99.90
1123;DHT22;548;48.778;9.252;2023-05-01T03:53:07;10.20;99.90
1123;DHT22;548;48.778;9.252;2023-05-01T03:55:34;10.20;99.90
1123;DHT22;548;48.778;9.252;2023-05-01T03:58:01;10.30;99.90
1123;DHT22;548;48.778;9.252;2023-05-01T04:00:27;10.30;99.90
1123;DHT22;548;48.778;9.252;2023-05-01T04:02:54;10.30;99.90
1123;DHT22;548;48.778;9.252;2023-05-01T04:05:21;10.30;99.90
1123;DHT22;548;48.778;9.252;2023-05-01T04:07:49;10.20;99.90
1123;DHT22;548;48.778;9.252;2023-05-01T04:10:16;10.30;99.90
1123;DHT22;548;48.778;9.252;2023-05-01T04:12:43;10.30;99.90
1123;DHT22;548;48.778;9.252;2023-05-01T04:15:10;10.40;99.90
1123;DHT22;548;48.778;9.252;2023-05-01T04:17:37;10.40;99.90
1123;DHT22;548;48.778;9.252;2023-05-01T04:20:05;10.40;99.90
1123;DHT22;548;48.778;9.252;2023-05-01T04:22:32;10.40;99.90
1123;DHT22;548;48.778;9.252;2023-05-01T04:25:00;10.50;99.90
1123;DHT22;548;48.778;9.252;2023-05-01T04:27:27;10.50;99.90
1123;DHT22;548;48.778;9.252;2023-05-01T04:29:54;10.50;99.90
1123;DHT22;548;48.778;9.252;2023-05-01T04:32:21;10.60;99.90
1123;DHT22;548;48.778;9.252;2023-05-01T04:34:47;10.70;99.90
1123;DHT22;548;48.778;9.252;2023-05-01T04:37:14;10.70;99.90
1123;DHT22;548;48.778;9.252;2023-05-01T04:39:42;10.80;99.90
1123;DHT22;548;48.778;9.252;2023-05-01T04:42:10;10.80;99.90
1123;DHT22;548;48.778;9.252;2023-05-01T04:44:37;10.80;99.90
1123;DHT22;548;48.778;9.252;2023-05-01T04:47:03;10.80;99.90
1123;DHT22;548;48.778;9.252;2023-05-01T04:49:30;10.80;99.90
1123;DHT22;548;48.778;9.252;2023-05-01T04:51:57;10.90;99.90
1123;DHT22;548;48.778;9.252;2023-05-01T04:54:24;10.90;99.90
1123;DHT22;548;48.778;9.252;2023-05-01T04:56:50;11.00;99.90
1123;DHT22;548;48.778;9.252;2023-05-01T04:59:18;11.10;99.90
1123;DHT22;548;48.778;9.252;2023-05-01T05:01:45;11.20;99.90
1123;DHT22;548;48.778;9.252;2023-05-01T05:04:12;11.20;99.90
1123;DHT22;548;48.778;9.252;2023-05-01T05:06:38;11.30;99.90
1123;DHT22;548;48.778;9.252;2023-05-01T05:09:05;11.20;99.90
1123;DHT22;548;48.778;9.252;2023-05-01T05:11:31;11.20;99.90
1123;DHT22;548;48.778;9.252;2023-05-01T05:13:58;11.30;99.90
1123;DHT22;548;48.778;9.252;2023-05-01T05:16:26;11.40;99.90
1123;DHT22;548;48.778;9.252;2023-05-01T05:18:54;11.40;99.90
1123;DHT22;548;48.778;9.252;2023-05-01T05:21:21;11.50;99.90
1123;DHT22;548;48.778;9.252;2023-05-01T05:23:48;11.50;99.90
1123;DHT22;548;48.778;9.252;2023-05-01T05:26:15;11.60;99.90
1123;DHT22;548;48.778;9.252;2023-05-01T05:28:42;11.60;99.90
1123;DHT22;548;48.778;9.252;2023-05-01T05:31:09;11.60;99.90
1123;DHT22;548;48.778;9.252;2023-05-01T05:33:37;11.60;99.90
1123;DHT22;548;48.778;9.252;2023-05-01T05:36:04;11.60;99.90
1123;DHT22;548;48.778;9.252;2023-05-01T05:38:31;11.60;99.90
1123;DHT22;548;48.778;9.252;2023-05-01T05:40:58;11.70;99.90
1123;DHT22;548;48.778;9.252;2023-05-01T05:43:26;11.80;99.90
1123;DHT22;548;48.778;9.252;2023-05-01T05:45:55;11.80;99.90
1123;DHT22;548;48.778;9.252;2023-05-01T05:48:22;11.80;99.90
1123;DHT22;548;48.778;9.252;2023-05-01T05:50:50;11.80;99.90
1123;DHT22;548;48.778;9.252;2023-05-01T05:53:17;11.70;99.90
1123;DHT22;548;48.778;9.252;2023-05-01T05:55:45;11.60;99.90
1123;DHT22;548;48.778;9.252;2023-05-01T05:58:12;11.60;99.90
1123;DHT22;548;48.778;9.252;2023-05-01T06:00:44;11.60;99.90
1123;DHT22;548;48.778;9.252;2023-05-01T06:03:11;11.60;99.90
1123;DHT22;548;48.778;9.252;2023-05-01T06:05:38;11.60;99.90
1123;DHT22;548;48.778;9.252;2023-05-01T06:08:06;11.60;99.90
1123;DHT22;548;48.778;9.252;2023-05-01T06:10:34;11.60;99.90
1123;DHT22;548;48.778;9.252;2023-05-01T06:13:01;11.60;99.90
1123;DHT22;548;48.778;9.252;2023-05-01T06:15:28;11.50;99.90
1123;DHT22;548;48.778;9.252;2023-05-01T06:17:55;11.60;99.90
1123;DHT22;548;48.778;9.252;2023-05-01T06:20:22;11.50;99.90
1123;DHT22;548;48.778;9.252;2023-05-01T06:22:49;11.40;99.90
1123;DHT22;548;48.778;9.252;2023-05-01T06:25:17;11.40;99.90
1123;DHT22;548;48.778;9.252;2023-05-01T06:27:44;11.50;99.90
1123;DHT22;548;48.778;9.252;2023-05-01T06:30:11;11.50;99.90
1123;DHT22;548;48.778;9.252;2023-05-01T06:32:38;11.50;99.90
1123;DHT22;548;48.778;9.252;2023-05-01T06:35:07;11.50;99.90
1123;DHT22;548;48.778;9.252;2023-05-01T06:37:33;11.60;99.90
1123;DHT22;548;48.778;9.252;2023-05-01T06:40:00;11.70;99.90
1123;DHT22;548;48.778;9.252;2023-05-01T06:42:28;12.10;99.90
1123;DHT22;548;48.778;9.252;2023-05-01T06:44:55;12.30;99.90
1123;DHT22;548;48.778;9.252;2023-05-01T06:47:22;12.30;99.90
1123;DHT22;548;48.778;9.252;2023-05-01T06:49:49;12.40;99.90
1123;DHT22;548;48.778;9.252;2023-05-01T06:52:15;12.30;99.90
1123;DHT22;548;48.778;9.252;2023-05-01T06:54:42;12.20;99.90
1123;DHT22;548;48.778;9.252;2023-05-01T06:57:09;12.20;99.90
1123;DHT22;548;48.778;9.252;2023-05-01T06:59:37;12.30;99.90
1123;DHT22;548;48.778;9.252;2023-05-01T07:02:04;12.20;99.90
1123;DHT22;548;48.778;9.252;2023-05-01T07:04:31;12.30;99.90
1123;DHT22;548;48.778;9.252;2023-05-01T07:06:58;12.20;99.90
1123;DHT22;548;48.778;9.252;2023-05-01T07:09:25;12.20;99.90
1123;DHT22;548;48.778;9.252;2023-05-01T07:11:52;12.10;99.90
1123;DHT22;548;48.778;9.252;2023-05-01T07:14:21;12.10;99.90
1123;DHT22;548;48.778;9.252;2023-05-01T07:16:49;12.00;99.90
1123;DHT22;548;48.778;9.252;2023-05-01T07:19:16;11.90;99.90
1123;DHT22;548;48.778;9.252;2023-05-01T07:21:42;11.90;99.90
1123;DHT22;548;48.778;9.252;2023-05-01T07:24:09;11.90;99.90
1123;DHT22;548;48.778;9.252;2023-05-01T07:26:37;12.00;99.90
1123;DHT22;548;48.778;9.252;2023-05-01T07:29:04;11.90;99.90
1123;DHT22;548;48.778;9.252;2023-05-01T07:31:30;12.00;99.90
1123;DHT22;548;48.778;9.252;2023-05-01T07:33:59;12.10;99.90
1123;DHT22;548;48.778;9.252;2023-05-01T07:36:25;12.20;99.90
1123;DHT22;548;48.778;9.252;2023-05-01T07:38:52;12.20;99.90
1123;DHT22;548;48.778;9.252;2023-05-01T07:41:19;12.20;99.90
1123;DHT22;548;48.778;9.252;2023-05-01T07:43:47;12.30;99.90
1123;DHT22;548;48.778;9.252;2023-05-01T07:46:14;12.50;99.90
1123;DHT22;548;48.778;9.252;2023-05-01T07:48:41;12.70;99.90
1123;DHT22;548;48.778;9.252;2023-05-01T07:51:10;12.90;99.90
1123;DHT22;548;48.778;9.252;2023-05-01T07:53:36;13.20;99.90
1123;DHT22;548;48.778;9.252;2023-05-01T07:56:05;13.50;99.90
1123;DHT22;548;48.778;9.252;2023-05-01T07:58:33;13.80;99.90
1123;DHT22;548;48.778;9.252;2023-05-01T08:01:00;14.00;99.90
1123;DHT22;548;48.778;9.252;2023-05-01T08:03:27;14.00;99.90
1123;DHT22;548;48.778;9.252;2023-05-01T08:05:54;13.90;99.90
1123;DHT22;548;48.778;9.252;2023-05-01T08:08:22;13.90;99.90
1123;DHT22;548;48.778;9.252;2023-05-01T08:10:50;13.90;99.90
1123;DHT22;548;48.778;9.252;2023-05-01T08:13:16;13.90;99.90
1123;DHT22;548;48.778;9.252;2023-05-01T08:15:44;13.90;99.90
1123;DHT22;548;48.778;9.252;2023-05-01T08:18:11;14.10;99.90
1123;DHT22;548;48.778;9.252;2023-05-01T08:20:44;14.00;99.90
1123;DHT22;548;48.778;9.252;2023-05-01T08:23:10;14.00;99.90
1123;DHT22;548;48.778;9.252;2023-05-01T08:25:38;14.20;99.90
1123;DHT22;548;48.778;9.252;2023-05-01T08:28:05;14.50;99.90
1123;DHT22;548;48.778;9.252;2023-05-01T08:30:32;14.40;99.90
1123;DHT22;548;48.778;9.252;2023-05-01T08:32:58;14.20;99.90
1123;DHT22;548;48.778;9.252;2023-05-01T08:35:25;14.10;99.90
1123;DHT22;548;48.778;9.252;2023-05-01T08:37:52;14.10;99.90
1123;DHT22;548;48.778;9.252;2023-05-01T08:40:19;14.20;99.90
1123;DHT22;548;48.778;9.252;2023-05-01T08:42:47;14.20;99.90
1123;DHT22;548;48.778;9.252;2023-05-01T08:45:15;14.20;99.90
1123;DHT22;548;48.778;9.252;2023-05-01T08:47:44;14.30;99.90
1123;DHT22;548;48.778;9.252;2023-05-01T08:50:12;14.50;99.90
1123;DHT22;548;48.778;9.252;2023-05-01T08:52:40;14.90;99.90
1123;DHT22;548;48.778;9.252;2023-05-01T08:55:11;15.20;99.90
1123;DHT22;548;48.778;9.252;2023-05-01T08:57:39;15.50;99.90
1123;DHT22;548;48.778;9.252;2023-05-01T09:00:15;15.70;99.90
1123;DHT22;548;48.778;9.252;2023-05-01T09:02:43;16.00;99.90
1123;DHT22;548;48.778;9.252;2023-05-01T09:05:12;16.10;99.90
1123;DHT22;548;48.778;9.252;2023-05-01T09:07:40;16.30;99.90
1123;DHT22;548;48.778;9.252;2023-05-01T09:10:08;16.60;99.90
1123;DHT22;548;48.778;9.252;2023-05-01T09:12:35;16.70;99.90
1123;DHT22;548;48.778;9.252;2023-05-01T09:15:03;17.10;99.90
1123;DHT22;548;48.778;9.252;2023-05-01T09:17:33;17.40;99.90
1123;DHT22;548;48.778;9.252;2023-05-01T09:20:01;17.60;99.90
1123;DHT22;548;48.778;9.252;2023-05-01T09:22:31;18.10;99.90
1123;DHT22;548;48.778;9.252;2023-05-01T09:24:58;18.40;99.90
1123;DHT22;548;48.778;9.252;2023-05-01T09:27:26;18.70;99.90
1123;DHT22;548;48.778;9.252;2023-05-01T09:29:53;18.70;99.90
1123;DHT22;548;48.778;9.252;2023-05-01T09:32:23;18.50;99.90
1123;DHT22;548;48.778;9.252;2023-05-01T09:34:55;18.60;99.90
1123;DHT22;548;48.778;9.252;2023-05-01T09:37:26;18.90;99.90
1123;DHT22;548;48.778;9.252;2023-05-01T09:40:06;19.20;99.90
1123;DHT22;548;48.778;9.252;2023-05-01T09:42:34;19.30;99.40
1123;DHT22;548;48.778;9.252;2023-05-01T09:45:03;19.40;99.50
1123;DHT22;548;48.778;9.252;2023-05-01T10:21:11;24.60;83.20
1123;DHT22;548;48.778;9.252;2023-05-01T10:23:41;24.50;82.60
1123;DHT22;548;48.778;9.252;2023-05-01T10:26:08;24.10;83.90
1123;DHT22;548;48.778;9.252;2023-05-01T10:28:39;24.00;82.40
1123;DHT22;548;48.778;9.252;2023-05-01T10:31:06;22.90;85.20
1123;DHT22;548;48.778;9.252;2023-05-01T10:33:34;22.40;86.30
1123;DHT22;548;48.778;9.252;2023-05-01T10:36:02;22.30;86.90
1123;DHT22;548;48.778;9.252;2023-05-01T10:38:32;22.30;88.00
1123;DHT22;548;48.778;9.252;2023-05-01T10:40:59;22.50;86.90
1123;DHT22;548;48.778;9.252;2023-05-01T10:43:27;22.40;87.80
1123;DHT22;548;48.778;9.252;2023-05-01T10:46:26;22.00;87.60
1123;DHT22;548;48.778;9.252;2023-05-01T10:48:55;22.10;86.80
1123;DHT22;548;48.778;9.252;2023-05-01T10:51:24;22.50;86.20
1123;DHT22;548;48.778;9.252;2023-05-01T10:54:27;22.60;85.70
1123;DHT22;548;48.778;9.252;2023-05-01T10:56:55;23.20;85.20
1123;DHT22;548;48.778;9.252;2023-05-01T10:59:23;23.20;85.50
1123;DHT22;548;48.778;9.252;2023-05-01T11:01:50;23.20;84.20
1123;DHT22;548;48.778;9.252;2023-05-01T11:04:48;22.70;84.30
1123;DHT22;548;48.778;9.252;2023-05-01T11:07:18;22.90;84.40
1123;DHT22;548;48.778;9.252;2023-05-01T11:09:47;23.10;82.30
1123;DHT22;548;48.778;9.252;2023-05-01T11:12:49;23.20;82.90
1123;DHT22;548;48.778;9.252;2023-05-01T11:15:26;22.70;83.10
1123;DHT22;548;48.778;9.252;2023-05-01T11:17:53;22.90;84.70
1123;DHT22;548;48.778;9.252;2023-05-01T11:20:48;22.80;82.80
1123;DHT22;548;48.778;9.252;2023-05-01T11:23:21;22.10;84.20
1123;DHT22;548;48.778;9.252;2023-05-01T11:26:00;21.90;86.30
1123;DHT22;548;48.778;9.252;2023-05-01T11:28:30;21.60;86.60
1123;DHT22;548;48.778;9.252;2023-05-01T11:30:57;21.90;87.00
1123;DHT22;548;48.778;9.252;2023-05-01T11:33:24;21.80;86.90
1123;DHT22;548;48.778;9.252;2023-05-01T11:36:01;22.00;85.90
1123;DHT22;548;48.778;9.252;2023-05-01T11:38:29;21.40;87.30
1123;DHT22;548;48.778;9.252;2023-05-01T11:41:01;21.30;88.10
1123;DHT22;548;48.778;9.252;2023-05-01T11:43:29;21.40;88.50
1123;DHT22;548;48.778;9.252;2023-05-01T11:45:57;21.90;87.30
1123;DHT22;548;48.778;9.252;2023-05-01T11:48:28;21.90;84.90
1123;DHT22;548;48.778;9.252;2023-05-01T11:50:56;21.40;86.10
1123;DHT22;548;48.778;9.252;2023-05-01T11:53:22;21.30;88.20
1123;DHT22;548;48.778;9.252;2023-05-01T11:55:49;21.50;87.30
1123;DHT22;548;48.778;9.252;2023-05-01T11:58:30;21.60;87.50
1123;DHT22;548;48.778;9.252;2023-05-01T12:00:57;21.70;87.80
1123;DHT22;548;48.778;9.252;2023-05-01T12:03:24;21.20;89.80
1123;DHT22;548;48.778;9.252;2023-05-01T12:05:51;20.50;90.60
1123;DHT22;548;48.778;9.252;2023-05-01T12:08:19;20.20;91.90
1123;DHT22;548;48.778;9.252;2023-05-01T12:10:49;20.60;92.30
1123;DHT22;548;48.778;9.252;2023-05-01T12:13:17;21.00;91.70
1123;DHT22;548;48.778;9.252;2023-05-01T12:15:46;21.40;90.30
1123;DHT22;548;48.778;9.252;2023-05-01T12:18:14;21.40;90.10
1123;DHT22;548;48.778;9.252;2023-05-01T12:20:42;21.10;90.00
1123;DHT22;548;48.778;9.252;2023-05-01T12:23:11;21.50;90.10
1123;DHT22;548;48.778;9.252;2023-05-01T12:25:39;21.30;89.50
1123;DHT22;548;48.778;9.252;2023-05-01T12:28:08;21.00;90.60
1123;DHT22;548;48.778;9.252;2023-05-01T12:30:37;21.20;90.60
1123;DHT22;548;48.778;9.252;2023-05-01T12:33:08;20.90;90.30
1123;DHT22;548;48.778;9.252;2023-05-01T12:35:36;21.20;90.30
1123;DHT22;548;48.778;9.252;2023-05-01T12:38:09;21.10;90.30
1123;DHT22;548;48.778;9.252;2023-05-01T12:40:37;21.30;89.70
1123;DHT22;548;48.778;9.252;2023-05-01T12:43:04;21.30;90.60
1123;DHT22;548;48.778;9.252;2023-05-01T12:45:38;21.70;89.80
1123;DHT22;548;48.778;9.252;2023-05-01T12:48:10;22.10;88.50
1123;DHT22;548;48.778;9.252;2023-05-01T12:50:37;22.50;86.60
1123;DHT22;548;48.778;9.252;2023-05-01T12:53:04;22.80;85.00
1123;DHT22;548;48.778;9.252;2023-05-01T12:55:43;22.50;84.20
1123;DHT22;548;48.778;9.252;2023-05-01T12:58:11;22.10;85.20
1123;DHT22;548;48.778;9.252;2023-05-01T13:00:43;22.60;85.10
1123;DHT22;548;48.778;9.252;2023-05-01T13:03:11;22.80;84.30
1123;DHT22;548;48.778;9.252;2023-05-01T13:05:52;22.90;83.30
1123;DHT22;548;48.778;9.252;2023-05-01T13:08:26;23.00;83.80
1123;DHT22;548;48.778;9.252;2023-05-01T13:10:54;23.10;82.60
1123;DHT22;548;48.778;9.252;2023-05-01T13:13:25;23.20;82.50
1123;DHT22;548;48.778;9.252;2023-05-01T13:16:03;23.10;82.50
1123;DHT22;548;48.778;9.252;2023-05-01T13:18:30;22.50;84.00
1123;DHT22;548;48.778;9.252;2023-05-01T13:21:05;22.00;85.30
1123;DHT22;548;48.778;9.252;2023-05-01T13:23:32;21.90;86.20
1123;DHT22;548;48.778;9.252;2023-05-01T13:25:59;21.30;87.40
1123;DHT22;548;48.778;9.252;2023-05-01T13:28:26;21.00;88.60
1123;DHT22;548;48.778;9.252;2023-05-01T13:30:54;20.90;89.20
1123;DHT22;548;48.778;9.252;2023-05-01T13:33:21;20.00;91.00
1123;DHT22;548;48.778;9.252;2023-05-01T13:35:48;19.50;92.10
1123;DHT22;548;48.778;9.252;2023-05-01T13:38:15;19.70;92.20
1123;DHT22;548;48.778;9.252;2023-05-01T13:40:47;19.40;92.70
1123;DHT22;548;48.778;9.252;2023-05-01T13:43:15;19.30;93.20
1123;DHT22;548;48.778;9.252;2023-05-01T13:45:41;19.10;93.90
1123;DHT22;548;48.778;9.252;2023-05-01T13:48:09;19.10;94.30
1123;DHT22;548;48.778;9.252;2023-05-01T13:50:38;19.10;94.20
1123;DHT22;548;48.778;9.252;2023-05-01T13:53:06;19.00;94.60
1123;DHT22;548;48.778;9.252;2023-05-01T13:55:33;18.90;95.20
1123;DHT22;548;48.778;9.252;2023-05-01T13:58:00;18.70;96.00
1123;DHT22;548;48.778;9.252;2023-05-01T14:00:27;18.50;96.40
1123;DHT22;548;48.778;9.252;2023-05-01T14:02:54;18.40;97.10
1123;DHT22;548;48.778;9.252;2023-05-01T14:05:26;18.70;98.40
1123;DHT22;548;48.778;9.252;2023-05-01T14:07:55;18.80;98.20
1123;DHT22;548;48.778;9.252;2023-05-01T14:10:23;18.90;97.90
1123;DHT22;548;48.778;9.252;2023-05-01T14:12:54;19.10;97.50
1123;DHT22;548;48.778;9.252;2023-05-01T14:15:20;19.20;96.90
1123;DHT22;548;48.778;9.252;2023-05-01T14:17:48;19.30;97.50
1123;DHT22;548;48.778;9.252;2023-05-01T14:20:15;19.10;99.90
1123;DHT22;548;48.778;9.252;2023-05-01T14:22:44;18.60;99.90
1123;DHT22;548;48.778;9.252;2023-05-01T14:25:25;18.40;99.90
1123;DHT22;548;48.778;9.252;2023-05-01T14:27:52;18.10;99.90
1123;DHT22;548;48.778;9.252;2023-05-01T14:30:25;18.10;99.90
1123;DHT22;548;48.778;9.252;2023-05-01T14:32:53;17.60;99.90
1123;DHT22;548;48.778;9.252;2023-05-01T14:35:21;17.30;99.90
1123;DHT22;548;48.778;9.252;2023-05-01T14:37:49;17.20;99.90
1123;DHT22;548;48.778;9.252;2023-05-01T14:40:17;17.30;99.90
1123;DHT22;548;48.778;9.252;2023-05-01T14:42:44;17.60;99.90
1123;DHT22;548;48.778;9.252;2023-05-01T14:45:12;17.70;99.90
1123;DHT22;548;48.778;9.252;2023-05-01T14:47:40;17.50;99.90
1123;DHT22;548;48.778;9.252;2023-05-01T14:50:11;17.40;99.90
1123;DHT22;548;48.778;9.252;2023-05-01T14:52:40;17.30;99.90
1123;DHT22;548;48.778;9.252;2023-05-01T14:55:10;17.50;99.90
1123;DHT22;548;48.778;9.252;2023-05-01T14:57:37;17.60;99.90
1123;DHT22;548;48.778;9.252;2023-05-01T15:00:04;17.60;99.90
1123;DHT22;548;48.778;9.252;2023-05-01T15:02:32;17.50;99.90
1123;DHT22;548;48.778;9.252;2023-05-01T15:04:59;17.40;99.90
1123;DHT22;548;48.778;9.252;2023-05-01T15:07:26;17.50;99.90
1123;DHT22;548;48.778;9.252;2023-05-01T15:09:52;17.50;99.90
1123;DHT22;548;48.778;9.252;2023-05-01T15:12:20;17.40;99.90
1123;DHT22;548;48.778;9.252;2023-05-01T15:14:47;17.40;99.90
1123;DHT22;548;48.778;9.252;2023-05-01T15:17:14;17.30;99.90
1123;DHT22;548;48.778;9.252;2023-05-01T15:19:40;17.20;99.90
1123;DHT22;548;48.778;9.252;2023-05-01T15:22:07;17.00;99.90
1123;DHT22;548;48.778;9.252;2023-05-01T15:24:34;16.80;99.90
1123;DHT22;548;48.778;9.252;2023-05-01T15:27:01;16.60;99.90
1123;DHT22;548;48.778;9.252;2023-05-01T15:29:29;16.60;99.90
1123;DHT22;548;48.778;9.252;2023-05-01T15:31:56;16.40;99.90
1123;DHT22;548;48.778;9.252;2023-05-01T15:34:23;16.20;99.90
1123;DHT22;548;48.778;9.252;2023-05-01T15:36:50;15.90;99.90
1123;DHT22;548;48.778;9.252;2023-05-01T15:39:16;15.70;99.90
1123;DHT22;548;48.778;9.252;2023-05-01T15:41:44;15.60;99.90
1123;DHT22;548;48.778;9.252;2023-05-01T15:44:12;15.60;99.90
1123;DHT22;548;48.778;9.252;2023-05-01T15:46:40;15.50;99.90
1123;DHT22;548;48.778;9.252;2023-05-01T15:49:07;15.60;99.90
1123;DHT22;548;48.778;9.252;2023-05-01T15:51:35;15.40;99.90
1123;DHT22;548;48.778;9.252;2023-05-01T15:54:02;15.30;99.90
1123;DHT22;548;48.778;9.252;2023-05-01T15:56:33;15.30;99.90
1123;DHT22;548;48.778;9.252;2023-05-01T15:59:01;15.40;99.90
1123;DHT22;548;48.778;9.252;2023-05-01T16:01:29;15.60;99.90
1123;DHT22;548;48.778;9.252;2023-05-01T16:03:58;15.70;99.90
1123;DHT22;548;48.778;9.252;2023-05-01T16:06:25;15.60;99.90
1123;DHT22;548;48.778;9.252;2023-05-01T16:08:52;15.40;99.90
1123;DHT22;548;48.778;9.252;2023-05-01T16:11:19;15.20;99.90
1123;DHT22;548;48.778;9.252;2023-05-01T16:13:46;15.30;99.90
1123;DHT22;548;48.778;9.252;2023-05-01T16:16:18;15.30;99.90
1123;DHT22;548;48.778;9.252;2023-05-01T16:18:51;15.40;99.90
1123;DHT22;548;48.778;9.252;2023-05-01T16:21:21;15.60;99.90
1123;DHT22;548;48.778;9.252;2023-05-01T16:23:49;15.90;99.90
1123;DHT22;548;48.778;9.252;2023-05-01T16:26:22;16.00;99.90
1123;DHT22;548;48.778;9.252;2023-05-01T16:28:50;16.10;99.90
1123;DHT22;548;48.778;9.252;2023-05-01T16:31:17;16.00;99.90
1123;DHT22;548;48.778;9.252;2023-05-01T16:33:44;16.10;99.90
1123;DHT22;548;48.778;9.252;2023-05-01T16:36:14;16.20;99.90
1123;DHT22;548;48.778;9.252;2023-05-01T16:38:43;16.10;99.90
1123;DHT22;548;48.778;9.252;2023-05-01T16:41:14;16.10;99.90
1123;DHT22;548;48.778;9.252;2023-05-01T16:43:41;16.10;99.90
1123;DHT22;548;48.778;9.252;2023-05-01T16:46:08;16.10;99.90
1123;DHT22;548;48.778;9.252;2023-05-01T16:48:34;16.10;99.90
1123;DHT22;548;48.778;9.252;2023-05-01T16:51:03;15.90;99.90
1123;DHT22;548;48.778;9.252;2023-05-01T16:53:30;15.80;99.90
1123;DHT22;548;48.778;9.252;2023-05-01T16:55:58;15.50;99.90
1123;DHT22;548;48.778;9.252;2023-05-01T16:58:26;15.60;99.90
1123;DHT22;548;48.778;9.252;2023-05-01T17:00:54;15.60;99.90
1123;DHT22;548;48.778;9.252;2023-05-01T17:03:21;15.60;99.90
1123;DHT22;548;48.778;9.252;2023-05-01T17:05:48;15.70;99.90
1123;DHT22;548;48.778;9.252;2023-05-01T17:08:15;15.60;99.90